Aérodrome :
LOGIN :

S'inscrire | Disclaimer

   EN    FR    IT 

 










Légende :    VFR   VFR Marginal   IFR   IFR Intensif   IFR Très Intensif
Visi : 
Plafond : 
>= 8 km
>= 3000ft
5 à 8 km
1000 à 3000 ft
1500m à 5 km
500 à 1000 ft
800 à 1500m
200 à 500 ft
< 800m
< 200 ft
Symboles :   Orages  Brouillard  Fortes neiges  Fortes précipitations  Vent > 20 kt
SIGMETs :   Divers  Orages  Givrage  Turbulence  Onde Orograph.  Cendres Volcan.







- Altitude de l'aérodrome : 26 ft


ETNT - Wittmundhaven AB

DERNIER METAR :
  • 240431Z 21004KT 9999 BKN005 15/12 Q1011 YLO GRN TEMPO YLO

METARs EXPIRÉS :
  • 240420Z 18004KT 9999 BKN007 FEW025CB BKN040 15/12 Q1011 GRN GRN TEMPO YLO
  • 240411Z 16004KT 9999 BKN009 FEW025CB BKN040 15/12 Q1011 GRN GRN TEMPO YLO
  • 240320Z VRB01KT 9999 FEW025 BKN060 15/11 Q1011 BLU
  • 240220Z 14005KT 9999 FEW030 SCT080 BKN200 15/11 Q1011 RETS BLU+

TAF TAF ETNT
Valide du 24 à 05h jusqu'au 24 à 14h UTC


240406Z 2405/2414 26010KT 8000 NSW FEW005 BKN010
TEMPO 2405/2407 24005KT 2500 BR BKN005 BKN150
BECMG 2407/2409 27012G22KT 9999 NSW SCT015 SCT240 BY ETGL
Pas de NOTAMs connus pour ce terrain.
4 SIGMETs publiés pour la FIR Bremen (EDWW) :
 
Orages noyés dans la masse
EDWW SIGMET 6 VALID 240430/240730 EDZH
EDWW BREMEN FIR EMBD TS OBS WI N5400 E00814 - N5219 E01032 - N5210 E00922 - N5356 E00731 - N5400 E00814 TOP FL320 MOV E NC=
Orages noyés dans la masse
EDWW SIGMET 5 VALID 240312/240430 EDZH
EDWW BREMEN FIR EMBD TS FCST W OF LINE N5120 E01010 - N5505 E01010 TOP FL320 MOV E NC=
Annulation du SIGMET 3 
EDWW SIGMET 4 VALID 240310/240430 EDZH
EDWW BREMEN FIR CNL SIGMET 3 240300/240430=
SIGMET 3  ANNULÉ :
Orages noyés dans la masse
EDWW SIGMET 3 VALID 240300/240430 EDZH
EDWW BREMEN FIR EMBD TS FCST W OF LINE N5120 E01010 - N5505 E01010 ABV FL320 MOV E NC=



MET'MAP, la Météo Aéronautique d'un coup d'oeil ! - Copyright ORBIFLY Décembre 2007 - Disclaimer

ORBIFLY MET'MAP TEAM :

Programmation & Développement : Alexandra Zaïnal
Conception & Développement : Baudouin d'Aumeries
Co-Programmation & Développement : Marc-Olivier Méhu
Soutien technique & logistique : Manuel Goepfert

Contact : metmap@orbifly.com




SOURCES & CREDITS :

   NOAA